sensor_id;sensor_type;location;lat;lon;timestamp;P1;durP1;ratioP1;P2;durP2;ratioP2
43809;SDS011;29440;48.208;11.162;2022-07-22T00:01:28;15.95;;;12.80;;
43809;SDS011;29440;48.208;11.162;2022-07-22T00:03:53;17.42;;;12.68;;
43809;SDS011;29440;48.208;11.162;2022-07-22T00:06:19;16.10;;;12.93;;
43809;SDS011;29440;48.208;11.162;2022-07-22T00:08:45;17.67;;;14.15;;
43809;SDS011;29440;48.208;11.162;2022-07-22T00:11:11;26.50;;;14.15;;
43809;SDS011;29440;48.208;11.162;2022-07-22T00:13:38;15.25;;;13.25;;
43809;SDS011;29440;48.208;11.162;2022-07-22T00:16:04;16.75;;;13.13;;
43809;SDS011;29440;48.208;11.162;2022-07-22T00:18:30;16.27;;;13.35;;
43809;SDS011;29440;48.208;11.162;2022-07-22T00:20:55;17.95;;;14.40;;
43809;SDS011;29440;48.208;11.162;2022-07-22T00:23:21;21.73;;;13.70;;
43809;SDS011;29440;48.208;11.162;2022-07-22T00:25:47;15.43;;;12.80;;
43809;SDS011;29440;48.208;11.162;2022-07-22T00:28:13;14.93;;;11.80;;
43809;SDS011;29440;48.208;11.162;2022-07-22T00:30:38;16.27;;;13.65;;
43809;SDS011;29440;48.208;11.162;2022-07-22T00:33:04;15.57;;;12.23;;
43809;SDS011;29440;48.208;11.162;2022-07-22T00:35:30;14.77;;;12.10;;
43809;SDS011;29440;48.208;11.162;2022-07-22T00:37:55;16.98;;;11.90;;
43809;SDS011;29440;48.208;11.162;2022-07-22T00:40:21;17.60;;;12.68;;
43809;SDS011;29440;48.208;11.162;2022-07-22T00:42:47;16.60;;;12.05;;
43809;SDS011;29440;48.208;11.162;2022-07-22T00:45:13;16.98;;;12.00;;
43809;SDS011;29440;48.208;11.162;2022-07-22T00:47:39;16.42;;;11.80;;
43809;SDS011;29440;48.208;11.162;2022-07-22T00:50:05;19.10;;;12.60;;
43809;SDS011;29440;48.208;11.162;2022-07-22T00:52:32;15.60;;;11.95;;
43809;SDS011;29440;48.208;11.162;2022-07-22T00:54:59;13.25;;;11.82;;
43809;SDS011;29440;48.208;11.162;2022-07-22T00:57:26;17.25;;;12.07;;
43809;SDS011;29440;48.208;11.162;2022-07-22T00:59:52;15.32;;;10.93;;
43809;SDS011;29440;48.208;11.162;2022-07-22T01:02:18;15.52;;;12.50;;
43809;SDS011;29440;48.208;11.162;2022-07-22T01:04:44;16.40;;;12.25;;
43809;SDS011;29440;48.208;11.162;2022-07-22T01:07:09;16.58;;;12.50;;
43809;SDS011;29440;48.208;11.162;2022-07-22T01:09:36;13.45;;;11.80;;
43809;SDS011;29440;48.208;11.162;2022-07-22T01:12:02;19.15;;;12.32;;
43809;SDS011;29440;48.208;11.162;2022-07-22T01:14:28;16.23;;;12.77;;
43809;SDS011;29440;48.208;11.162;2022-07-22T01:16:54;13.55;;;12.10;;
43809;SDS011;29440;48.208;11.162;2022-07-22T01:19:20;13.95;;;12.15;;
43809;SDS011;29440;48.208;11.162;2022-07-22T01:21:46;15.38;;;12.68;;
43809;SDS011;29440;48.208;11.162;2022-07-22T01:24:12;13.18;;;11.38;;
43809;SDS011;29440;48.208;11.162;2022-07-22T01:26:37;14.77;;;13.00;;
43809;SDS011;29440;48.208;11.162;2022-07-22T01:29:03;16.77;;;12.95;;
43809;SDS011;29440;48.208;11.162;2022-07-22T01:31:29;15.13;;;12.25;;
43809;SDS011;29440;48.208;11.162;2022-07-22T01:33:55;15.25;;;11.85;;
43809;SDS011;29440;48.208;11.162;2022-07-22T01:36:21;16.77;;;12.13;;
43809;SDS011;29440;48.208;11.162;2022-07-22T01:38:47;16.33;;;12.35;;
43809;SDS011;29440;48.208;11.162;2022-07-22T01:41:13;15.30;;;13.07;;
43809;SDS011;29440;48.208;11.162;2022-07-22T01:43:38;17.30;;;12.27;;
43809;SDS011;29440;48.208;11.162;2022-07-22T01:46:04;14.52;;;12.05;;
43809;SDS011;29440;48.208;11.162;2022-07-22T01:48:30;18.10;;;12.82;;
43809;SDS011;29440;48.208;11.162;2022-07-22T01:50:56;14.55;;;12.48;;
43809;SDS011;29440;48.208;11.162;2022-07-22T01:53:22;13.77;;;11.68;;
43809;SDS011;29440;48.208;11.162;2022-07-22T01:55:48;17.80;;;12.82;;
43809;SDS011;29440;48.208;11.162;2022-07-22T01:58:14;14.20;;;11.43;;
43809;SDS011;29440;48.208;11.162;2022-07-22T02:00:40;15.05;;;11.70;;
43809;SDS011;29440;48.208;11.162;2022-07-22T02:03:07;14.20;;;12.02;;
43809;SDS011;29440;48.208;11.162;2022-07-22T02:05:33;14.35;;;12.15;;
43809;SDS011;29440;48.208;11.162;2022-07-22T02:08:05;14.98;;;12.32;;
43809;SDS011;29440;48.208;11.162;2022-07-22T02:10:33;16.85;;;11.35;;
43809;SDS011;29440;48.208;11.162;2022-07-22T02:12:59;18.27;;;11.70;;
43809;SDS011;29440;48.208;11.162;2022-07-22T02:15:26;15.18;;;11.02;;
43809;SDS011;29440;48.208;11.162;2022-07-22T02:17:52;16.10;;;11.73;;
43809;SDS011;29440;48.208;11.162;2022-07-22T02:20:18;13.57;;;10.88;;
43809;SDS011;29440;48.208;11.162;2022-07-22T02:22:45;16.20;;;12.27;;
43809;SDS011;29440;48.208;11.162;2022-07-22T02:25:10;17.38;;;12.88;;
43809;SDS011;29440;48.208;11.162;2022-07-22T02:27:36;15.02;;;11.95;;
43809;SDS011;29440;48.208;11.162;2022-07-22T02:30:03;19.80;;;12.10;;
43809;SDS011;29440;48.208;11.162;2022-07-22T02:32:30;19.15;;;12.07;;
43809;SDS011;29440;48.208;11.162;2022-07-22T02:34:56;20.45;;;11.63;;
43809;SDS011;29440;48.208;11.162;2022-07-22T02:37:21;14.88;;;10.88;;
43809;SDS011;29440;48.208;11.162;2022-07-22T02:39:47;18.83;;;12.00;;
43809;SDS011;29440;48.208;11.162;2022-07-22T02:42:13;19.70;;;12.60;;
43809;SDS011;29440;48.208;11.162;2022-07-22T02:44:39;16.20;;;11.38;;
43809;SDS011;29440;48.208;11.162;2022-07-22T02:47:04;18.92;;;12.40;;
43809;SDS011;29440;48.208;11.162;2022-07-22T02:49:30;18.73;;;12.70;;
43809;SDS011;29440;48.208;11.162;2022-07-22T02:51:58;19.50;;;12.68;;
43809;SDS011;29440;48.208;11.162;2022-07-22T02:54:24;13.70;;;10.93;;
43809;SDS011;29440;48.208;11.162;2022-07-22T02:56:49;15.25;;;10.65;;
43809;SDS011;29440;48.208;11.162;2022-07-22T02:59:15;13.60;;;11.80;;
43809;SDS011;29440;48.208;11.162;2022-07-22T03:01:41;19.13;;;12.80;;
43809;SDS011;29440;48.208;11.162;2022-07-22T03:04:06;15.75;;;12.13;;
43809;SDS011;29440;48.208;11.162;2022-07-22T03:06:32;15.00;;;10.63;;
43809;SDS011;29440;48.208;11.162;2022-07-22T03:08:57;12.95;;;10.13;;
43809;SDS011;29440;48.208;11.162;2022-07-22T03:11:23;16.73;;;11.90;;
43809;SDS011;29440;48.208;11.162;2022-07-22T03:13:49;17.05;;;11.32;;
43809;SDS011;29440;48.208;11.162;2022-07-22T03:16:14;16.63;;;11.70;;
43809;SDS011;29440;48.208;11.162;2022-07-22T03:18:40;15.95;;;11.18;;
43809;SDS011;29440;48.208;11.162;2022-07-22T03:21:06;17.23;;;11.15;;
43809;SDS011;29440;48.208;11.162;2022-07-22T03:23:31;20.95;;;11.27;;
43809;SDS011;29440;48.208;11.162;2022-07-22T03:25:57;18.92;;;10.82;;
43809;SDS011;29440;48.208;11.162;2022-07-22T03:28:23;22.02;;;12.48;;
43809;SDS011;29440;48.208;11.162;2022-07-22T03:30:49;15.73;;;10.50;;
43809;SDS011;29440;48.208;11.162;2022-07-22T03:33:14;14.02;;;10.02;;
43809;SDS011;29440;48.208;11.162;2022-07-22T03:35:40;15.20;;;10.48;;
43809;SDS011;29440;48.208;11.162;2022-07-22T03:38:06;16.48;;;11.23;;
43809;SDS011;29440;48.208;11.162;2022-07-22T03:40:32;15.60;;;11.15;;
43809;SDS011;29440;48.208;11.162;2022-07-22T03:42:58;19.35;;;12.02;;
43809;SDS011;29440;48.208;11.162;2022-07-22T03:45:23;15.63;;;10.75;;
43809;SDS011;29440;48.208;11.162;2022-07-22T03:47:49;21.65;;;12.07;;
43809;SDS011;29440;48.208;11.162;2022-07-22T03:50:14;21.85;;;11.65;;
43809;SDS011;29440;48.208;11.162;2022-07-22T03:52:41;18.15;;;11.20;;
43809;SDS011;29440;48.208;11.162;2022-07-22T03:55:06;18.02;;;11.43;;
43809;SDS011;29440;48.208;11.162;2022-07-22T03:57:32;22.25;;;11.48;;
43809;SDS011;29440;48.208;11.162;2022-07-22T03:59:58;16.33;;;10.10;;
43809;SDS011;29440;48.208;11.162;2022-07-22T04:02:23;18.65;;;11.55;;
43809;SDS011;29440;48.208;11.162;2022-07-22T04:04:49;13.70;;;10.48;;
43809;SDS011;29440;48.208;11.162;2022-07-22T04:07:14;17.52;;;11.43;;
43809;SDS011;29440;48.208;11.162;2022-07-22T04:09:40;16.27;;;10.43;;
43809;SDS011;29440;48.208;11.162;2022-07-22T04:12:05;14.85;;;11.35;;
43809;SDS011;29440;48.208;11.162;2022-07-22T04:14:31;16.98;;;11.60;;
43809;SDS011;29440;48.208;11.162;2022-07-22T04:16:57;12.90;;;10.00;;
43809;SDS011;29440;48.208;11.162;2022-07-22T04:19:22;12.50;;;10.43;;
43809;SDS011;29440;48.208;11.162;2022-07-22T04:21:48;15.90;;;10.52;;
43809;SDS011;29440;48.208;11.162;2022-07-22T04:24:14;16.90;;;11.27;;
43809;SDS011;29440;48.208;11.162;2022-07-22T04:26:39;19.02;;;11.90;;
43809;SDS011;29440;48.208;11.162;2022-07-22T04:29:05;14.48;;;11.05;;
43809;SDS011;29440;48.208;11.162;2022-07-22T04:31:31;16.20;;;11.60;;
43809;SDS011;29440;48.208;11.162;2022-07-22T04:33:57;16.67;;;10.32;;
43809;SDS011;29440;48.208;11.162;2022-07-22T04:36:23;17.30;;;9.98;;
43809;SDS011;29440;48.208;11.162;2022-07-22T04:38:48;14.02;;;9.25;;
43809;SDS011;29440;48.208;11.162;2022-07-22T04:41:14;17.90;;;10.88;;
43809;SDS011;29440;48.208;11.162;2022-07-22T04:43:40;25.00;;;9.82;;
43809;SDS011;29440;48.208;11.162;2022-07-22T04:46:06;17.20;;;9.52;;
43809;SDS011;29440;48.208;11.162;2022-07-22T04:48:31;18.38;;;10.30;;
43809;SDS011;29440;48.208;11.162;2022-07-22T04:51:00;14.13;;;9.60;;
43809;SDS011;29440;48.208;11.162;2022-07-22T04:53:27;18.95;;;9.60;;
43809;SDS011;29440;48.208;11.162;2022-07-22T04:55:53;12.90;;;9.65;;
43809;SDS011;29440;48.208;11.162;2022-07-22T04:58:19;13.10;;;10.95;;
43809;SDS011;29440;48.208;11.162;2022-07-22T05:00:45;16.05;;;11.02;;
43809;SDS011;29440;48.208;11.162;2022-07-22T05:03:11;13.52;;;9.50;;
43809;SDS011;29440;48.208;11.162;2022-07-22T05:05:37;14.02;;;10.90;;
43809;SDS011;29440;48.208;11.162;2022-07-22T05:08:03;14.98;;;10.05;;
43809;SDS011;29440;48.208;11.162;2022-07-22T05:10:29;17.45;;;11.02;;
43809;SDS011;29440;48.208;11.162;2022-07-22T05:12:54;16.02;;;11.13;;
43809;SDS011;29440;48.208;11.162;2022-07-22T05:15:20;18.45;;;11.32;;
43809;SDS011;29440;48.208;11.162;2022-07-22T05:17:45;12.88;;;10.50;;
43809;SDS011;29440;48.208;11.162;2022-07-22T05:20:11;15.27;;;10.10;;
43809;SDS011;29440;48.208;11.162;2022-07-22T05:22:37;15.23;;;12.25;;
43809;SDS011;29440;48.208;11.162;2022-07-22T05:25:02;15.73;;;11.23;;
43809;SDS011;29440;48.208;11.162;2022-07-22T05:27:28;17.17;;;11.90;;
43809;SDS011;29440;48.208;11.162;2022-07-22T05:29:54;16.30;;;12.45;;
43809;SDS011;29440;48.208;11.162;2022-07-22T05:32:19;17.13;;;11.20;;
43809;SDS011;29440;48.208;11.162;2022-07-22T05:34:45;17.58;;;12.73;;
43809;SDS011;29440;48.208;11.162;2022-07-22T05:37:10;17.55;;;11.13;;
43809;SDS011;29440;48.208;11.162;2022-07-22T05:39:36;15.63;;;10.52;;
43809;SDS011;29440;48.208;11.162;2022-07-22T05:42:01;14.43;;;10.98;;
43809;SDS011;29440;48.208;11.162;2022-07-22T05:44:27;19.02;;;11.50;;
43809;SDS011;29440;48.208;11.162;2022-07-22T05:46:52;17.50;;;11.43;;
43809;SDS011;29440;48.208;11.162;2022-07-22T05:49:18;18.88;;;11.02;;
43809;SDS011;29440;48.208;11.162;2022-07-22T05:51:44;13.38;;;10.65;;
43809;SDS011;29440;48.208;11.162;2022-07-22T05:54:10;14.85;;;11.65;;
43809;SDS011;29440;48.208;11.162;2022-07-22T05:56:36;13.07;;;10.40;;
43809;SDS011;29440;48.208;11.162;2022-07-22T05:59:01;13.48;;;10.52;;
43809;SDS011;29440;48.208;11.162;2022-07-22T06:01:27;15.38;;;10.30;;
43809;SDS011;29440;48.208;11.162;2022-07-22T06:03:52;12.60;;;10.93;;
43809;SDS011;29440;48.208;11.162;2022-07-22T06:06:18;15.52;;;11.25;;
43809;SDS011;29440;48.208;11.162;2022-07-22T06:08:43;14.85;;;10.40;;
43809;SDS011;29440;48.208;11.162;2022-07-22T06:11:09;12.38;;;10.98;;
43809;SDS011;29440;48.208;11.162;2022-07-22T06:13:35;11.20;;;10.00;;
43809;SDS011;29440;48.208;11.162;2022-07-22T06:16:02;13.52;;;10.70;;
43809;SDS011;29440;48.208;11.162;2022-07-22T06:18:28;12.93;;;10.82;;
43809;SDS011;29440;48.208;11.162;2022-07-22T06:20:53;11.45;;;10.05;;
43809;SDS011;29440;48.208;11.162;2022-07-22T06:23:19;12.13;;;10.73;;
43809;SDS011;29440;48.208;11.162;2022-07-22T06:25:44;12.73;;;10.30;;
43809;SDS011;29440;48.208;11.162;2022-07-22T06:28:10;11.60;;;10.27;;
43809;SDS011;29440;48.208;11.162;2022-07-22T06:30:36;13.40;;;10.93;;
43809;SDS011;29440;48.208;11.162;2022-07-22T06:33:02;10.95;;;9.85;;
43809;SDS011;29440;48.208;11.162;2022-07-22T06:35:28;22.58;;;11.35;;
43809;SDS011;29440;48.208;11.162;2022-07-22T06:37:54;12.27;;;9.80;;
43809;SDS011;29440;48.208;11.162;2022-07-22T06:40:19;14.85;;;10.15;;
43809;SDS011;29440;48.208;11.162;2022-07-22T06:42:45;12.43;;;10.60;;
43809;SDS011;29440;48.208;11.162;2022-07-22T06:45:10;13.68;;;10.30;;
43809;SDS011;29440;48.208;11.162;2022-07-22T06:47:36;16.85;;;10.43;;
43809;SDS011;29440;48.208;11.162;2022-07-22T06:50:03;12.60;;;10.20;;
43809;SDS011;29440;48.208;11.162;2022-07-22T06:52:29;14.65;;;10.82;;
43809;SDS011;29440;48.208;11.162;2022-07-22T06:54:54;11.60;;;10.43;;
43809;SDS011;29440;48.208;11.162;2022-07-22T06:57:20;12.30;;;10.52;;
43809;SDS011;29440;48.208;11.162;2022-07-22T06:59:45;12.52;;;10.68;;
43809;SDS011;29440;48.208;11.162;2022-07-22T07:02:11;12.82;;;10.15;;
43809;SDS011;29440;48.208;11.162;2022-07-22T07:04:36;16.85;;;10.73;;
43809;SDS011;29440;48.208;11.162;2022-07-22T07:07:02;13.52;;;11.23;;
43809;SDS011;29440;48.208;11.162;2022-07-22T07:09:28;12.57;;;11.10;;
43809;SDS011;29440;48.208;11.162;2022-07-22T07:11:53;12.98;;;11.02;;
43809;SDS011;29440;48.208;11.162;2022-07-22T07:14:19;11.80;;;10.60;;
43809;SDS011;29440;48.208;11.162;2022-07-22T07:16:44;12.57;;;10.05;;
43809;SDS011;29440;48.208;11.162;2022-07-22T07:19:10;12.23;;;9.60;;
43809;SDS011;29440;48.208;11.162;2022-07-22T07:21:36;11.18;;;9.60;;
43809;SDS011;29440;48.208;11.162;2022-07-22T07:24:01;10.63;;;9.63;;
43809;SDS011;29440;48.208;11.162;2022-07-22T07:26:27;12.32;;;10.70;;
43809;SDS011;29440;48.208;11.162;2022-07-22T07:28:52;12.77;;;10.40;;
43809;SDS011;29440;48.208;11.162;2022-07-22T07:31:18;13.82;;;11.18;;
43809;SDS011;29440;48.208;11.162;2022-07-22T07:33:44;12.70;;;10.35;;
43809;SDS011;29440;48.208;11.162;2022-07-22T07:36:09;11.38;;;10.27;;
43809;SDS011;29440;48.208;11.162;2022-07-22T07:38:35;15.38;;;10.77;;
43809;SDS011;29440;48.208;11.162;2022-07-22T07:41:01;13.70;;;10.25;;
43809;SDS011;29440;48.208;11.162;2022-07-22T07:43:27;12.48;;;10.18;;
43809;SDS011;29440;48.208;11.162;2022-07-22T07:45:53;11.82;;;10.05;;
43809;SDS011;29440;48.208;11.162;2022-07-22T07:48:18;12.82;;;9.63;;
43809;SDS011;29440;48.208;11.162;2022-07-22T07:50:44;12.00;;;10.15;;
43809;SDS011;29440;48.208;11.162;2022-07-22T07:53:13;11.38;;;9.80;;
43809;SDS011;29440;48.208;11.162;2022-07-22T07:55:39;13.77;;;10.13;;
43809;SDS011;29440;48.208;11.162;2022-07-22T07:58:05;11.30;;;9.82;;
43809;SDS011;29440;48.208;11.162;2022-07-22T08:00:31;14.90;;;10.52;;
43809;SDS011;29440;48.208;11.162;2022-07-22T08:02:58;12.80;;;9.80;;
43809;SDS011;29440;48.208;11.162;2022-07-22T08:05:24;10.13;;;8.82;;
43809;SDS011;29440;48.208;11.162;2022-07-22T08:07:50;9.75;;;8.75;;
43809;SDS011;29440;48.208;11.162;2022-07-22T08:10:16;9.93;;;8.63;;
43809;SDS011;29440;48.208;11.162;2022-07-22T08:12:42;12.57;;;9.00;;
43809;SDS011;29440;48.208;11.162;2022-07-22T08:15:08;13.52;;;9.60;;
43809;SDS011;29440;48.208;11.162;2022-07-22T08:17:35;10.55;;;8.93;;
43809;SDS011;29440;48.208;11.162;2022-07-22T08:20:01;11.63;;;9.45;;
43809;SDS011;29440;48.208;11.162;2022-07-22T08:22:27;9.85;;;8.57;;
43809;SDS011;29440;48.208;11.162;2022-07-22T08:24:53;12.63;;;9.35;;
43809;SDS011;29440;48.208;11.162;2022-07-22T08:27:19;14.00;;;9.00;;
43809;SDS011;29440;48.208;11.162;2022-07-22T08:29:44;12.40;;;9.73;;
43809;SDS011;29440;48.208;11.162;2022-07-22T08:32:10;13.15;;;9.90;;
43809;SDS011;29440;48.208;11.162;2022-07-22T08:34:36;10.93;;;9.73;;
43809;SDS011;29440;48.208;11.162;2022-07-22T08:37:01;10.32;;;9.07;;
43809;SDS011;29440;48.208;11.162;2022-07-22T08:39:27;12.02;;;9.25;;
43809;SDS011;29440;48.208;11.162;2022-07-22T08:41:53;14.13;;;9.15;;
43809;SDS011;29440;48.208;11.162;2022-07-22T08:44:19;9.85;;;8.68;;
43809;SDS011;29440;48.208;11.162;2022-07-22T08:46:45;9.80;;;8.68;;
43809;SDS011;29440;48.208;11.162;2022-07-22T08:49:15;11.13;;;8.70;;
43809;SDS011;29440;48.208;11.162;2022-07-22T08:51:41;10.88;;;9.23;;
43809;SDS011;29440;48.208;11.162;2022-07-22T08:54:06;13.10;;;8.65;;
43809;SDS011;29440;48.208;11.162;2022-07-22T08:56:32;9.57;;;8.23;;
43809;SDS011;29440;48.208;11.162;2022-07-22T08:58:58;13.77;;;9.57;;
43809;SDS011;29440;48.208;11.162;2022-07-22T09:01:24;13.80;;;8.50;;
43809;SDS011;29440;48.208;11.162;2022-07-22T09:03:51;11.55;;;9.70;;
43809;SDS011;29440;48.208;11.162;2022-07-22T09:06:20;11.80;;;8.00;;
43809;SDS011;29440;48.208;11.162;2022-07-22T09:08:58;11.85;;;8.63;;
43809;SDS011;29440;48.208;11.162;2022-07-22T09:11:25;10.05;;;8.68;;
43809;SDS011;29440;48.208;11.162;2022-07-22T09:13:53;10.23;;;8.25;;
43809;SDS011;29440;48.208;11.162;2022-07-22T09:19:13;10.05;;;8.23;;
43809;SDS011;29440;48.208;11.162;2022-07-22T09:21:40;9.85;;;7.70;;
43809;SDS011;29440;48.208;11.162;2022-07-22T09:24:09;8.73;;;7.75;;
43809;SDS011;29440;48.208;11.162;2022-07-22T09:26:54;9.07;;;7.35;;
43809;SDS011;29440;48.208;11.162;2022-07-22T09:29:21;8.23;;;6.55;;
43809;SDS011;29440;48.208;11.162;2022-07-22T09:31:49;8.80;;;6.55;;
43809;SDS011;29440;48.208;11.162;2022-07-22T09:34:27;8.30;;;7.38;;
43809;SDS011;29440;48.208;11.162;2022-07-22T09:36:54;9.32;;;6.97;;
43809;SDS011;29440;48.208;11.162;2022-07-22T09:39:28;8.68;;;6.25;;
43809;SDS011;29440;48.208;11.162;2022-07-22T09:41:59;7.30;;;6.55;;
43809;SDS011;29440;48.208;11.162;2022-07-22T09:44:27;9.13;;;6.38;;
43809;SDS011;29440;48.208;11.162;2022-07-22T09:46:52;8.55;;;6.47;;
43809;SDS011;29440;48.208;11.162;2022-07-22T09:49:34;8.40;;;6.18;;
43809;SDS011;29440;48.208;11.162;2022-07-22T09:52:04;8.45;;;7.13;;
43809;SDS011;29440;48.208;11.162;2022-07-22T09:54:29;10.10;;;6.43;;
43809;SDS011;29440;48.208;11.162;2022-07-22T09:56:56;9.20;;;6.32;;
43809;SDS011;29440;48.208;11.162;2022-07-22T09:59:23;8.90;;;6.85;;
43809;SDS011;29440;48.208;11.162;2022-07-22T10:01:50;9.38;;;7.75;;
43809;SDS011;29440;48.208;11.162;2022-07-22T10:04:19;10.30;;;6.75;;
43809;SDS011;29440;48.208;11.162;2022-07-22T10:06:46;10.57;;;6.93;;
43809;SDS011;29440;48.208;11.162;2022-07-22T10:09:13;11.38;;;7.00;;
43809;SDS011;29440;48.208;11.162;2022-07-22T10:11:41;9.13;;;7.53;;
43809;SDS011;29440;48.208;11.162;2022-07-22T10:14:11;8.40;;;6.90;;
43809;SDS011;29440;48.208;11.162;2022-07-22T10:16:37;9.57;;;6.60;;
43809;SDS011;29440;48.208;11.162;2022-07-22T10:19:03;10.38;;;6.93;;
43809;SDS011;29440;48.208;11.162;2022-07-22T10:21:30;7.30;;;6.28;;
43809;SDS011;29440;48.208;11.162;2022-07-22T10:26:51;8.10;;;6.40;;
43809;SDS011;29440;48.208;11.162;2022-07-22T10:29:31;8.65;;;6.97;;
43809;SDS011;29440;48.208;11.162;2022-07-22T10:34:42;9.90;;;6.50;;
43809;SDS011;29440;48.208;11.162;2022-07-22T10:37:35;7.78;;;6.57;;
43809;SDS011;29440;48.208;11.162;2022-07-22T10:40:13;8.07;;;5.70;;
43809;SDS011;29440;48.208;11.162;2022-07-22T10:45:26;8.15;;;6.97;;
43809;SDS011;29440;48.208;11.162;2022-07-22T10:47:57;11.45;;;7.10;;
43809;SDS011;29440;48.208;11.162;2022-07-22T10:53:00;8.75;;;6.82;;
43809;SDS011;29440;48.208;11.162;2022-07-22T10:55:26;8.90;;;6.88;;
43809;SDS011;29440;48.208;11.162;2022-07-22T10:57:52;9.07;;;6.80;;
43809;SDS011;29440;48.208;11.162;2022-07-22T11:00:18;7.10;;;6.35;;
43809;SDS011;29440;48.208;11.162;2022-07-22T11:02:44;8.73;;;6.07;;
43809;SDS011;29440;48.208;11.162;2022-07-22T11:05:09;8.15;;;6.68;;
43809;SDS011;29440;48.208;11.162;2022-07-22T11:07:42;7.63;;;6.40;;
43809;SDS011;29440;48.208;11.162;2022-07-22T11:10:15;9.73;;;7.00;;
43809;SDS011;29440;48.208;11.162;2022-07-22T11:12:43;8.15;;;6.63;;
43809;SDS011;29440;48.208;11.162;2022-07-22T11:15:10;9.05;;;6.30;;
43809;SDS011;29440;48.208;11.162;2022-07-22T11:17:36;10.73;;;6.65;;
43809;SDS011;29440;48.208;11.162;2022-07-22T11:20:06;7.70;;;6.85;;
43809;SDS011;29440;48.208;11.162;2022-07-22T11:22:34;8.60;;;6.50;;
43809;SDS011;29440;48.208;11.162;2022-07-22T11:25:01;8.25;;;6.53;;
43809;SDS011;29440;48.208;11.162;2022-07-22T11:27:29;11.55;;;6.60;;
43809;SDS011;29440;48.208;11.162;2022-07-22T11:29:55;11.43;;;6.60;;
43809;SDS011;29440;48.208;11.162;2022-07-22T11:32:23;8.13;;;6.45;;
43809;SDS011;29440;48.208;11.162;2022-07-22T11:34:49;10.25;;;6.40;;
43809;SDS011;29440;48.208;11.162;2022-07-22T11:37:16;8.02;;;6.32;;
43809;SDS011;29440;48.208;11.162;2022-07-22T11:39:43;8.18;;;6.57;;
43809;SDS011;29440;48.208;11.162;2022-07-22T11:42:10;9.82;;;6.28;;
43809;SDS011;29440;48.208;11.162;2022-07-22T11:44:36;8.20;;;6.47;;
43809;SDS011;29440;48.208;11.162;2022-07-22T11:47:03;7.20;;;6.28;;
43809;SDS011;29440;48.208;11.162;2022-07-22T11:49:30;10.50;;;6.05;;
43809;SDS011;29440;48.208;11.162;2022-07-22T11:51:59;9.25;;;6.07;;
43809;SDS011;29440;48.208;11.162;2022-07-22T11:54:25;6.40;;;5.80;;
43809;SDS011;29440;48.208;11.162;2022-07-22T11:56:52;7.85;;;5.55;;
43809;SDS011;29440;48.208;11.162;2022-07-22T11:59:18;7.88;;;5.70;;
43809;SDS011;29440;48.208;11.162;2022-07-22T12:01:45;7.80;;;6.28;;
43809;SDS011;29440;48.208;11.162;2022-07-22T12:04:16;8.32;;;5.28;;
43809;SDS011;29440;48.208;11.162;2022-07-22T12:06:49;10.38;;;5.72;;
43809;SDS011;29440;48.208;11.162;2022-07-22T12:09:16;11.85;;;6.13;;
43809;SDS011;29440;48.208;11.162;2022-07-22T12:11:46;6.35;;;5.70;;
43809;SDS011;29440;48.208;11.162;2022-07-22T12:14:17;10.48;;;6.75;;
43809;SDS011;29440;48.208;11.162;2022-07-22T12:19:24;7.28;;;5.93;;
43809;SDS011;29440;48.208;11.162;2022-07-22T12:21:55;6.75;;;5.65;;
43809;SDS011;29440;48.208;11.162;2022-07-22T12:24:27;8.05;;;5.97;;
43809;SDS011;29440;48.208;11.162;2022-07-22T12:26:53;9.90;;;5.60;;
43809;SDS011;29440;48.208;11.162;2022-07-22T12:31:56;6.10;;;5.50;;
43809;SDS011;29440;48.208;11.162;2022-07-22T12:34:40;6.93;;;5.05;;
43809;SDS011;29440;48.208;11.162;2022-07-22T12:37:32;9.15;;;5.63;;
43809;SDS011;29440;48.208;11.162;2022-07-22T12:40:05;7.82;;;5.70;;
43809;SDS011;29440;48.208;11.162;2022-07-22T12:42:37;7.95;;;6.22;;
43809;SDS011;29440;48.208;11.162;2022-07-22T12:45:08;7.00;;;5.57;;
43809;SDS011;29440;48.208;11.162;2022-07-22T12:55:22;7.63;;;5.78;;
43809;SDS011;29440;48.208;11.162;2022-07-22T12:57:49;8.10;;;6.00;;
43809;SDS011;29440;48.208;11.162;2022-07-22T13:00:48;8.27;;;5.82;;
43809;SDS011;29440;48.208;11.162;2022-07-22T13:03:11;6.95;;;5.45;;
43809;SDS011;29440;48.208;11.162;2022-07-22T13:05:37;7.30;;;5.60;;
43809;SDS011;29440;48.208;11.162;2022-07-22T13:08:03;7.22;;;5.57;;
43809;SDS011;29440;48.208;11.162;2022-07-22T13:10:29;6.07;;;5.28;;
43809;SDS011;29440;48.208;11.162;2022-07-22T13:12:56;7.47;;;5.60;;
43809;SDS011;29440;48.208;11.162;2022-07-22T13:15:22;11.27;;;5.30;;
43809;SDS011;29440;48.208;11.162;2022-07-22T13:17:49;7.47;;;5.78;;
43809;SDS011;29440;48.208;11.162;2022-07-22T13:20:16;7.88;;;6.25;;
43809;SDS011;29440;48.208;11.162;2022-07-22T13:22:47;6.68;;;5.68;;
43809;SDS011;29440;48.208;11.162;2022-07-22T13:25:13;7.30;;;5.45;;
43809;SDS011;29440;48.208;11.162;2022-07-22T13:27:39;7.95;;;5.63;;
43809;SDS011;29440;48.208;11.162;2022-07-22T13:30:06;7.57;;;5.53;;
43809;SDS011;29440;48.208;11.162;2022-07-22T13:32:32;7.38;;;5.93;;
43809;SDS011;29440;48.208;11.162;2022-07-22T13:34:58;7.03;;;5.47;;
43809;SDS011;29440;48.208;11.162;2022-07-22T13:37:24;6.82;;;5.88;;
43809;SDS011;29440;48.208;11.162;2022-07-22T13:39:51;6.68;;;5.32;;
43809;SDS011;29440;48.208;11.162;2022-07-22T13:42:17;9.50;;;5.95;;
43809;SDS011;29440;48.208;11.162;2022-07-22T13:44:47;6.50;;;5.90;;
43809;SDS011;29440;48.208;11.162;2022-07-22T13:47:14;9.48;;;6.03;;
43809;SDS011;29440;48.208;11.162;2022-07-22T13:49:40;8.25;;;5.47;;
43809;SDS011;29440;48.208;11.162;2022-07-22T13:52:06;8.30;;;5.70;;
43809;SDS011;29440;48.208;11.162;2022-07-22T13:54:32;6.65;;;5.30;;
43809;SDS011;29440;48.208;11.162;2022-07-22T13:56:59;8.45;;;5.38;;
43809;SDS011;29440;48.208;11.162;2022-07-22T13:59:27;10.30;;;5.53;;
43809;SDS011;29440;48.208;11.162;2022-07-22T14:01:54;9.35;;;5.95;;
43809;SDS011;29440;48.208;11.162;2022-07-22T14:04:19;7.75;;;5.07;;
43809;SDS011;29440;48.208;11.162;2022-07-22T14:06:45;7.40;;;5.53;;
43809;SDS011;29440;48.208;11.162;2022-07-22T14:09:10;7.20;;;5.72;;
43809;SDS011;29440;48.208;11.162;2022-07-22T14:11:36;7.30;;;5.35;;
43809;SDS011;29440;48.208;11.162;2022-07-22T14:14:01;8.68;;;6.00;;
43809;SDS011;29440;48.208;11.162;2022-07-22T14:16:27;8.85;;;5.47;;
43809;SDS011;29440;48.208;11.162;2022-07-22T14:19:04;7.03;;;5.18;;
43809;SDS011;29440;48.208;11.162;2022-07-22T14:21:32;6.57;;;5.90;;
43809;SDS011;29440;48.208;11.162;2022-07-22T14:23:58;6.80;;;5.13;;
43809;SDS011;29440;48.208;11.162;2022-07-22T14:26:25;7.53;;;5.68;;
43809;SDS011;29440;48.208;11.162;2022-07-22T14:28:51;8.10;;;5.65;;
43809;SDS011;29440;48.208;11.162;2022-07-22T14:31:17;5.43;;;4.90;;
43809;SDS011;29440;48.208;11.162;2022-07-22T14:33:44;7.07;;;5.13;;
43809;SDS011;29440;48.208;11.162;2022-07-22T14:36:10;5.57;;;4.97;;
43809;SDS011;29440;48.208;11.162;2022-07-22T14:38:36;8.13;;;5.35;;
43809;SDS011;29440;48.208;11.162;2022-07-22T14:41:02;6.55;;;5.18;;
43809;SDS011;29440;48.208;11.162;2022-07-22T14:43:29;6.35;;;5.30;;